Time;durP1;ratioP1;P1;durP2;ratioP2;P2;SDS_P1;SDS_P2;PMS_P1;PMS_P2;Temp;Humidity;BMP_temperature;BMP_pressure;BME280_temperature;BME280_humidity;BME280_pressure;Samples;Min_cycle;Max_cycle;Signal;HPM_P1;HPM_P2
2022/06/13 00:02:11;;;;;;;1.55;1.10;;;18.10;87.60;;;18.49;61.38;101386.81;5120143;29;20048;-69
2022/06/13 00:04:43;;;;;;;1.83;0.93;;;18.00;87.80;;;18.46;61.42;101386.78;5106689;29;20055;-68
2022/06/13 00:07:15;;;;;;;1.58;0.88;;;18.00;88.10;;;18.43;61.46;101390.25;5106497;29;20058;-69
2022/06/13 00:09:47;;;;;;;1.38;0.80;;;18.00;88.30;;;18.43;61.39;101392.03;5106222;29;20061;-69
2022/06/13 00:12:19;;;;;;;1.08;0.95;;;18.00;88.30;;;18.42;60.84;101388.50;5106588;29;20508;-68
2022/06/13 00:14:51;;;;;;;2.20;1.13;;;18.00;88.20;;;18.44;60.49;101386.75;5106395;29;20052;-68
2022/06/13 00:17:25;;;;;;;1.98;0.98;;;18.00;88.00;;;18.43;59.88;101389.38;5106732;29;20409;-68
2022/06/13 00:19:57;;;;;;;2.08;1.20;;;18.00;87.60;;;18.42;59.67;101388.50;5106127;29;20063;-68
2022/06/13 00:22:29;;;;;;;2.10;1.02;;;18.00;87.30;;;18.40;59.15;101389.34;5106108;29;20052;-68
2022/06/13 00:25:01;;;;;;;3.03;1.13;;;18.00;86.90;;;18.37;59.05;101397.22;5106229;29;20060;-68
2022/06/13 00:27:34;;;;;;;2.17;1.10;;;18.00;86.80;;;18.35;59.14;101396.31;5106214;29;20051;-69
2022/06/13 00:30:09;;;;;;;1.52;0.85;;;17.90;87.00;;;18.34;58.96;101389.28;5105630;29;20164;-68
2022/06/13 00:32:42;;;;;;;1.00;0.90;;;17.90;87.00;;;18.30;59.28;101390.09;5106025;29;20055;-68
2022/06/13 00:35:14;;;;;;;2.65;1.05;;;17.90;87.20;;;18.27;59.65;101387.44;5106336;29;20055;-68
2022/06/13 00:37:47;;;;;;;2.55;1.02;;;17.80;87.60;;;18.23;59.95;101375.06;5105747;29;20047;-68
2022/06/13 00:40:19;;;;;;;1.65;1.17;;;17.80;88.10;;;18.17;60.34;101371.47;5105003;29;20052;-68
2022/06/13 00:42:51;;;;;;;1.92;1.00;;;17.80;88.80;;;18.12;60.78;101367.00;5105692;29;20086;-68
2022/06/13 00:45:25;;;;;;;2.80;1.13;;;17.70;89.40;;;18.04;61.22;101364.25;5105723;29;20058;-68
2022/06/13 00:47:59;;;;;;;;;;;17.70;90.00;;;17.97;62.19;101361.53;5106168;29;20047;-67
2022/06/13 00:50:35;;;;;;;1.73;1.30;;;17.60;90.40;;;17.88;62.35;101364.94;5105335;29;20013;-69
2022/06/13 00:53:10;;;;;;;1.75;1.20;;;17.50;90.70;;;17.80;63.15;101363.91;5105686;29;20055;-67
2022/06/13 00:55:51;;;;;;;3.17;1.23;;;17.40;91.20;;;17.73;63.82;101362.06;5105952;29;20066;-68
2022/06/13 00:58:25;;;;;;;1.90;1.02;;;17.40;92.10;;;17.63;64.32;101361.91;5105478;29;20051;-69
2022/06/13 01:00:59;;;;;;;2.00;0.95;;;17.30;92.30;;;17.56;64.77;101349.50;5105403;29;20047;-68
2022/06/13 01:03:35;;;;;;;1.58;0.98;;;17.20;92.70;;;17.49;65.31;101345.00;5105510;29;20062;-68
2022/06/13 01:06:07;;;;;;;1.83;1.10;;;17.10;93.50;;;17.42;65.64;101356.31;5105306;29;20060;-68
2022/06/13 01:08:40;;;;;;;1.85;1.08;;;17.10;93.70;;;17.35;65.93;101341.25;5105307;29;20055;-68
2022/06/13 01:11:16;;;;;;;2.13;1.00;;;17.00;94.10;;;17.28;66.16;101347.31;5105442;29;20378;-68
2022/06/13 01:14:26;;;;;;;2.30;1.17;;;16.90;94.50;;;17.20;66.75;101359.44;5105365;29;20055;-68
2022/06/13 01:17:27;;;;;;;2.88;1.13;;;16.80;95.00;;;17.13;66.11;101362.84;5103867;29;20130;-68
2022/06/13 01:20:26;;;;;;;2.45;1.30;;;16.80;95.00;;;17.05;66.52;101365.34;5105117;29;20051;-68
2022/06/13 01:23:49;;;;;;;2.05;1.25;;;16.70;95.40;;;16.97;66.58;101365.22;5105152;29;20314;-68
2022/06/13 01:27:08;;;;;;;1.25;1.13;;;16.60;95.90;;;16.92;67.26;101364.25;5105127;29;20051;-69
2022/06/13 01:29:57;;;;;;;1.83;1.20;;;16.60;96.30;;;16.85;67.70;101356.22;5104492;29;20138;-68
2022/06/13 01:32:52;;;;;;;2.25;1.00;;;16.50;96.80;;;16.79;68.14;101362.25;5104998;29;20412;-69
2022/06/13 01:35:35;;;;;;;2.00;1.02;;;16.40;97.30;;;16.73;68.53;101359.50;5105203;29;20051;-69
2022/06/13 01:38:25;;;;;;;2.05;1.02;;;16.40;97.80;;;16.66;68.92;101360.22;5113156;28;20504;-68
2022/06/13 01:41:07;;;;;;;1.42;0.93;;;16.40;98.30;;;16.59;69.39;101358.31;5135920;28;20051;-69
2022/06/13 01:43:52;;;;;;;1.90;1.30;;;16.30;98.70;;;16.54;69.80;101355.59;5125030;29;20058;-69
2022/06/13 01:46:33;;;;;;;1.92;1.30;;;16.30;99.20;;;16.50;70.02;101348.50;5114442;29;20179;-68
2022/06/13 01:49:22;;;;;;;2.30;1.25;;;16.20;99.50;;;16.45;70.34;101360.69;5105240;29;20419;-68
2022/06/13 01:52:01;;;;;;;2.47;1.30;;;16.10;99.80;;;16.38;70.48;101364.94;5105082;29;20529;-68
2022/06/13 01:54:44;;;;;;;1.75;1.20;;;16.10;99.90;;;16.29;70.75;101372.63;5109319;29;20469;-68
2022/06/13 01:57:30;;;;;;;2.55;1.02;;;16.00;99.90;;;16.26;71.11;101375.22;5109047;29;20113;-68
2022/06/13 02:00:09;;;;;;;1.90;1.40;;;15.90;99.90;;;16.24;71.39;101371.66;5108817;29;20449;-68
2022/06/13 02:02:48;;;;;;;5.80;1.33;;;15.90;99.90;;;16.22;71.34;101370.72;5109215;29;20473;-68
2022/06/13 02:05:31;;;;;;;2.60;1.30;;;15.90;99.90;;;16.21;71.67;101376.84;5109067;29;20052;-68
2022/06/13 02:08:12;;;;;;;2.85;1.30;;;15.90;99.90;;;16.19;71.81;101381.19;5108708;29;20055;-68
2022/06/13 02:10:48;;;;;;;2.90;1.50;;;15.90;99.90;;;16.18;72.16;101382.06;5108339;29;20055;-68
2022/06/13 02:13:29;;;;;;;2.75;1.40;;;15.80;99.90;;;16.15;72.07;101388.13;5123326;29;20058;-68
2022/06/13 02:16:09;;;;;;;6.93;1.40;;;15.80;99.90;;;16.14;72.24;101391.63;5145838;28;20522;-68
2022/06/13 02:18:49;;;;;;;1.75;1.27;;;15.80;99.90;;;16.12;72.51;101398.59;5148244;28;20051;-68
2022/06/13 02:21:29;;;;;;;1.92;1.15;;;15.80;99.90;;;16.11;72.41;101402.09;5128975;28;20476;-68
2022/06/13 02:24:03;;;;;;;3.40;1.60;;;15.80;99.90;;;16.11;72.76;101403.81;5128647;29;20055;-68
2022/06/13 02:26:37;;;;;;;3.13;1.23;;;15.80;99.90;;;16.09;72.75;101402.88;5128356;29;20445;-68
2022/06/13 02:29:16;;;;;;;3.60;1.40;;;15.70;99.90;;;16.07;72.88;101400.22;5128295;29;20081;-68
2022/06/13 02:31:57;;;;;;;3.63;1.20;;;15.70;99.90;;;16.05;73.05;101396.69;5135798;28;20057;-68
2022/06/13 02:34:35;;;;;;;2.42;1.30;;;15.70;99.90;;;16.01;73.16;101395.72;5148451;28;20051;-69
2022/06/13 02:37:14;;;;;;;3.75;1.60;;;15.70;99.90;;;16.00;72.94;101393.94;5148000;28;20051;-68
2022/06/13 02:39:53;;;;;;;2.70;1.58;;;15.70;99.90;;;15.98;72.94;101398.28;5147890;28;20065;-68
2022/06/13 02:42:30;;;;;;;2.45;1.30;;;15.70;99.90;;;15.96;73.17;101401.72;5148217;28;20054;-69
2022/06/13 02:45:08;;;;;;;2.00;1.33;;;15.60;99.90;;;15.92;73.49;101395.53;5148268;28;20506;-68
2022/06/13 02:47:46;;;;;;;1.40;1.23;;;15.60;99.90;;;15.90;73.58;101389.31;5147941;28;20052;-68
2022/06/13 02:50:22;;;;;;;2.38;1.52;;;15.60;99.90;;;15.88;73.86;101387.53;5148171;28;20059;-68
2022/06/13 02:53:08;;;;;;;2.17;1.48;;;15.60;99.90;;;15.89;73.93;101384.91;5147851;28;20053;-68
2022/06/13 02:55:45;;;;;;;3.95;1.42;;;15.60;99.90;;;15.91;73.83;101388.50;5147851;28;20061;-68
2022/06/13 02:58:30;;;;;;;2.05;1.10;;;15.60;99.90;;;15.92;73.61;101378.88;5144419;28;20050;-68
2022/06/13 03:01:12;;;;;;;3.40;1.70;;;15.60;99.90;;;15.93;73.37;101383.25;5138477;28;20057;-68
2022/06/13 03:03:55;;;;;;;3.45;1.70;;;15.60;99.90;;;15.93;73.52;101380.63;5127197;28;20057;-68
2022/06/13 03:06:32;;;;;;;2.47;1.33;;;15.60;99.90;;;15.96;73.23;101385.94;5127692;29;20509;-68
2022/06/13 03:09:11;;;;;;;3.15;1.35;;;15.60;99.90;;;15.93;72.82;101378.88;5127652;29;20062;-68
2022/06/13 03:11:56;;;;;;;3.70;1.30;;;15.60;99.90;;;15.89;72.96;101379.66;5127522;29;20051;-69
2022/06/13 03:14:50;;;;;;;2.65;1.40;;;15.60;99.90;;;15.85;72.83;101377.84;5127711;29;20083;-69
2022/06/13 03:17:36;;;;;;;2.80;1.50;;;15.60;99.90;;;15.85;72.79;101385.72;5127766;29;20055;-68
2022/06/13 03:20:15;;;;;;;3.55;1.63;;;15.50;99.90;;;15.81;72.96;101378.63;5127356;29;20138;-68
2022/06/13 03:22:52;;;;;;;4.97;1.40;;;15.50;99.90;;;15.78;73.43;101370.69;5127313;29;20130;-69
2022/06/13 03:25:32;;;;;;;3.50;1.45;;;15.50;99.90;;;15.75;73.48;101381.09;5127385;29;20051;-69
2022/06/13 03:28:12;;;;;;;3.60;1.42;;;15.50;99.90;;;15.72;73.67;101375.78;5127545;29;20576;-69
2022/06/13 03:30:51;;;;;;;2.33;1.42;;;15.40;99.90;;;15.69;74.09;101366.06;5127183;29;20058;-68
2022/06/13 03:33:43;;;;;;;3.10;1.55;;;15.40;99.90;;;15.68;74.30;101369.56;5127327;29;20134;-68
2022/06/13 03:36:19;;;;;;;2.90;1.58;;;15.40;99.90;;;15.71;74.65;101368.72;5127037;29;20051;-68
2022/06/13 03:39:00;;;;;;;2.85;1.20;;;15.40;99.90;;;15.72;74.78;101373.16;5127108;29;20512;-68
2022/06/13 03:41:39;;;;;;;4.70;1.77;;;15.40;99.90;;;15.71;74.62;101385.41;5126888;29;20385;-69
2022/06/13 03:44:17;;;;;;;4.60;1.73;;;15.40;99.90;;;15.69;74.28;101386.22;5126884;29;20493;-68
2022/06/13 03:47:00;;;;;;;2.88;1.75;;;15.40;99.90;;;15.68;74.34;101400.22;5127273;29;20055;-68
2022/06/13 03:49:36;;;;;;;4.15;1.63;;;15.40;99.90;;;15.67;74.57;101403.69;5126970;29;20237;-68
2022/06/13 03:52:13;;;;;;;3.08;1.52;;;15.40;99.90;;;15.67;74.48;101408.94;5126569;29;20051;-68
2022/06/13 03:54:50;;;;;;;4.03;1.60;;;15.40;99.90;;;15.68;74.84;101410.72;5126779;29;20134;-67
2022/06/13 03:57:40;;;;;;;3.80;1.60;;;15.40;99.90;;;15.71;75.51;101405.53;5126613;29;20058;-68
2022/06/13 04:00:18;;;;;;;3.40;1.67;;;15.40;99.90;;;15.75;75.81;101407.38;5155061;23;20051;-70
2022/06/13 04:02:54;;;;;;;2.95;1.77;;;15.40;99.90;;;15.79;75.73;101409.25;5147214;28;20471;-70
2022/06/13 04:05:33;;;;;;;2.72;1.50;;;15.50;99.90;;;15.85;75.88;101414.66;5146871;28;20054;-69
2022/06/13 04:08:08;;;;;;;4.43;1.55;;;15.50;99.90;;;15.89;75.88;101412.97;5146749;28;20054;-69
2022/06/13 04:10:53;;;;;;;3.65;1.83;;;15.50;99.90;;;15.92;75.61;101418.31;5147267;28;20055;-69
2022/06/13 04:13:46;;;;;;;3.90;1.70;;;15.60;99.90;;;15.94;75.79;101420.09;5147101;28;20051;-69
2022/06/13 04:16:28;;;;;;;3.08;1.50;;;15.60;99.90;;;15.96;75.74;101417.50;5146188;28;20406;-70
2022/06/13 04:19:36;;;;;;;4.15;1.88;;;15.60;99.90;;;15.96;76.14;101418.38;5146988;28;20075;-70
2022/06/13 04:22:18;;;;;;;3.53;1.83;;;15.60;99.90;;;16.00;76.38;101419.34;5139543;28;20047;-69
2022/06/13 04:25:00;;;;;;;2.50;1.88;;;15.70;99.90;;;16.01;76.61;101416.75;5146683;28;20046;-69
2022/06/13 04:27:41;;;;;;;4.10;1.67;;;15.70;99.90;;;16.05;76.69;101414.22;5146421;28;20134;-69
2022/06/13 04:30:17;;;;;;;3.58;1.80;;;15.70;99.90;;;16.07;76.75;101416.00;5146676;28;20050;-70
2022/06/13 04:32:55;;;;;;;3.53;1.63;;;15.70;99.90;;;16.07;76.17;101416.00;5146346;28;20054;-69
2022/06/13 04:35:30;;;;;;;4.05;1.60;;;15.80;99.90;;;16.10;75.80;101416.06;5146618;28;20472;-69
2022/06/13 04:38:05;;;;;;;3.50;1.67;;;15.80;99.90;;;16.14;75.04;101411.78;5146711;28;20116;-70
2022/06/13 04:40:41;;;;;;;5.45;2.03;;;15.80;99.90;;;16.16;74.37;101412.69;5146538;28;20133;-70
2022/06/13 04:43:16;;;;;;;3.35;1.85;;;15.80;99.90;;;16.20;74.64;101411.91;5146217;28;20141;-69
2022/06/13 04:45:52;;;;;;;;;;;15.90;99.90;;;16.22;74.50;101410.19;5146944;28;20129;-70
2022/06/13 04:48:25;;;;;;;4.75;2.17;;;15.90;99.90;;;16.33;74.48;101411.31;5146233;28;20008;-70
2022/06/13 04:51:01;;;;;;;5.13;2.33;;;16.00;99.90;;;16.43;73.96;101426.44;5146432;28;20134;-69
2022/06/13 04:53:39;;;;;;;4.03;2.05;;;16.10;99.90;;;16.55;73.58;101420.53;5146012;28;20129;-72
2022/06/13 04:56:12;;;;;;;6.93;2.20;;;16.20;99.90;;;16.67;72.82;101430.41;5145548;28;20054;-73
2022/06/13 04:58:44;;;;;;;5.68;2.50;;;16.30;99.90;;;16.70;72.26;101436.69;5145455;28;20094;-71
2022/06/13 05:01:24;;;;;;;4.38;2.15;;;16.40;99.90;;;16.73;72.08;101434.09;5145535;28;20058;-72
2022/06/13 05:04:00;;;;;;;4.78;2.15;;;16.40;99.90;;;16.72;72.16;101442.84;5145785;28;20488;-72
2022/06/13 05:06:36;;;;;;;5.35;2.22;;;16.40;99.90;;;16.75;72.00;101444.66;5145492;28;20062;-73
2022/06/13 05:09:18;;;;;;;6.03;2.10;;;16.40;99.90;;;16.72;71.81;101444.59;5145404;28;20420;-72
2022/06/13 05:11:55;;;;;;;5.95;2.33;;;16.40;99.90;;;16.66;71.96;101437.44;5145330;28;20492;-74
2022/06/13 05:14:34;;;;;;;5.93;1.90;;;16.40;99.90;;;16.68;72.08;101437.44;5145652;28;20074;-72
2022/06/13 05:17:43;;;;;;;3.42;1.83;;;16.40;99.90;;;16.73;72.05;101430.56;5145387;28;20496;-73
2022/06/13 05:20:21;;;;;;;5.65;1.95;;;16.40;99.90;;;16.80;71.70;101435.09;5145332;28;20047;-74
2022/06/13 05:23:16;;;;;;;7.97;2.47;;;16.50;99.90;;;16.87;71.17;101434.34;5145191;28;20053;-72
2022/06/13 05:25:50;;;;;;;7.15;1.88;;;16.50;99.90;;;16.95;70.22;101439.75;5145088;28;20054;-73
2022/06/13 05:28:26;;;;;;;7.13;2.03;;;16.60;99.90;;;17.00;69.39;101441.63;5144893;28;20062;-73
2022/06/13 05:31:02;;;;;;;5.07;1.88;;;16.70;99.90;;;17.04;69.20;101440.84;5145043;28;20051;-74
2022/06/13 05:33:42;;;;;;;4.97;2.13;;;16.70;99.90;;;17.14;68.48;101444.53;5144958;28;20053;-73
2022/06/13 05:36:18;;;;;;;5.40;1.98;;;16.70;99.90;;;17.22;68.01;101457.84;5145223;28;20063;-72
2022/06/13 05:38:53;;;;;;;5.18;2.03;;;16.80;99.90;;;17.27;67.17;101459.69;5145138;28;20050;-72
2022/06/13 05:41:26;;;;;;;5.15;2.08;;;16.90;99.90;;;17.30;66.24;101454.50;5144872;28;20059;-73
2022/06/13 05:43:58;;;;;;;3.40;2.25;;;17.00;99.90;;;17.27;66.05;101456.16;5145031;28;20043;-73
2022/06/13 05:46:34;;;;;;;6.68;2.15;;;16.90;99.90;;;17.27;66.15;101456.16;5145065;28;20408;-72
2022/06/13 05:49:08;;;;;;;3.42;1.88;;;16.90;99.80;;;17.29;66.17;101455.34;5145082;28;20057;-73
2022/06/13 05:51:41;;;;;;;4.22;1.80;;;16.90;99.90;;;17.32;66.23;101459.78;5145207;28;20076;-72
2022/06/13 05:54:14;;;;;;;4.25;1.52;;;16.90;99.80;;;17.36;66.16;101453.72;5145087;28;20062;-73
2022/06/13 05:56:46;;;;;;;4.25;2.05;;;17.00;99.80;;;17.41;66.55;101462.59;5145024;28;20376;-72
2022/06/13 05:59:18;;;;;;;3.70;1.75;;;17.00;99.90;;;17.44;66.62;101456.47;5144308;28;20495;-70
2022/06/13 06:01:50;;;;;;;4.97;1.73;;;17.00;99.90;;;17.46;66.23;101460.00;5144576;28;20047;-70
2022/06/13 06:04:24;;;;;;;5.00;1.90;;;17.10;99.90;;;17.49;65.84;101465.34;5144693;28;20050;-70
2022/06/13 06:06:56;;;;;;;8.63;2.00;;;17.10;99.70;;;17.51;65.68;101467.16;5144724;28;20511;-71
2022/06/13 06:09:28;;;;;;;5.88;1.92;;;17.20;99.60;;;17.52;65.70;101468.91;5144356;28;20419;-71
2022/06/13 06:12:00;;;;;;;5.28;1.90;;;17.10;99.60;;;17.52;66.23;101468.91;5144290;28;20051;-71
2022/06/13 06:14:32;;;;;;;6.70;1.98;;;17.20;99.80;;;17.54;66.40;101464.56;5144510;28;20061;-72
2022/06/13 06:17:05;;;;;;;3.55;1.75;;;17.20;99.80;;;17.57;66.32;101472.53;5144454;28;20141;-72
2022/06/13 06:19:38;;;;;;;4.40;2.10;;;17.20;99.80;;;17.58;66.27;101473.41;5144037;28;20054;-71
2022/06/13 06:22:11;;;;;;;4.03;1.90;;;17.20;99.80;;;17.60;66.90;101472.59;5144794;28;20055;-70
2022/06/13 06:24:43;;;;;;;4.88;1.65;;;17.30;99.90;;;17.66;67.05;101470.88;5144639;28;20084;-71
2022/06/13 06:27:16;;;;;;;2.70;1.60;;;17.30;99.90;;;17.72;66.99;101476.31;5144695;28;20057;-71
2022/06/13 06:29:48;;;;;;;4.70;1.88;;;17.30;99.90;;;17.76;66.94;101484.31;5144142;28;20555;-71
2022/06/13 06:32:20;;;;;;;4.43;1.67;;;17.40;99.90;;;17.81;66.94;101490.53;5144208;28;20050;-67
2022/06/13 06:34:53;;;;;;;4.75;1.90;;;17.40;99.90;;;17.83;66.81;101487.91;5144797;28;20053;-70
2022/06/13 06:37:26;;;;;;;5.43;2.25;;;17.40;99.90;;;17.89;66.84;101491.53;5144849;28;20050;-68
2022/06/13 06:39:58;;;;;;;3.20;1.60;;;17.50;99.90;;;18.03;67.42;101488.22;5147493;28;20086;-68
2022/06/13 06:42:31;;;;;;;7.82;2.30;;;17.60;99.90;;;18.27;67.24;101482.44;5148489;28;20051;-69
2022/06/13 06:45:03;;;;;;;5.30;2.22;;;17.80;99.90;;;18.36;65.95;101482.56;5148093;28;20051;-69
2022/06/13 06:47:36;;;;;;;4.22;1.80;;;17.90;99.90;;;18.35;65.84;101484.31;5143863;28;20082;-70
2022/06/13 06:50:14;;;;;;;4.90;1.60;;;17.90;99.70;;;18.36;65.84;101493.13;5128377;29;20102;-69
2022/06/13 06:52:46;;;;;;;5.13;2.25;;;17.90;99.70;;;18.34;65.94;101492.22;5128312;29;20047;-69
2022/06/13 07:01:08;;;;;;;5.85;2.75;;;18.10;99.90;;;18.67;66.50;101497.09;5138027;28;20555;-71
2022/06/13 07:03:41;;;;;;;9.45;2.80;;;18.30;99.90;;;18.85;65.83;101499.97;5141100;28;20043;-72
2022/06/13 07:06:16;;;;;;;4.60;2.53;;;18.50;99.60;;;18.94;64.98;101508.00;5139567;28;20518;-71
2022/06/13 07:08:48;;;;;;;6.07;2.50;;;18.60;99.00;;;18.97;64.81;101504.47;5141573;28;20043;-73
2022/06/13 07:14:15;;;;;;;6.10;3.10;;;18.80;98.80;;;19.19;63.75;101506.50;5138389;28;20054;-73
2022/06/13 07:16:47;;;;;;;6.82;2.60;;;18.90;98.30;;;19.29;62.88;101507.47;5141225;28;20133;-74
2022/06/13 07:19:20;;;;;;;8.60;2.67;;;19.00;97.80;;;19.38;62.71;101515.53;5132329;28;20054;-72
2022/06/13 07:21:53;;;;;;;8.85;2.25;;;19.10;97.70;;;19.45;61.55;101517.34;5142889;28;20138;-74
2022/06/13 07:24:26;;;;;;;9.52;2.80;;;19.10;97.20;;;19.48;60.73;101519.13;5147562;28;20057;-73
2022/06/13 07:26:58;;;;;;;8.02;2.58;;;19.10;96.60;;;19.55;60.10;101518.31;5146885;28;20047;-72
2022/06/13 07:29:31;;;;;;;4.88;2.28;;;19.20;96.30;;;19.58;59.45;101520.16;5147027;28;20078;-71
2022/06/13 07:32:09;;;;;;;5.90;2.33;;;19.20;96.00;;;19.61;59.28;101526.34;5147321;28;20050;-71
2022/06/13 07:34:42;;;;;;;8.57;2.50;;;19.20;95.60;;;19.63;58.88;101518.44;5146955;28;20054;-72
2022/06/13 07:40:14;;;;;;;4.70;1.92;;;19.30;95.10;;;19.73;58.39;101520.28;5146603;28;20177;-72
2022/06/13 07:42:49;;;;;;;5.47;2.13;;;19.30;95.00;;;19.94;57.87;101520.44;5146749;28;20057;-72
2022/06/13 07:45:25;;;;;;;5.78;1.80;;;19.40;95.00;;;20.28;56.80;101520.72;5146728;28;20061;-72
2022/06/13 07:47:58;;;;;;;6.82;2.28;;;19.70;94.70;;;20.66;56.34;101513.00;5145135;28;20050;-72
2022/06/13 07:50:30;;;;;;;7.90;2.72;;;19.90;94.40;;;21.15;54.67;101521.16;5139537;28;20055;-71
2022/06/13 07:53:04;;;;;;;7.18;2.35;;;20.30;93.60;;;21.64;53.20;101521.25;5144120;28;20057;-73
2022/06/13 07:55:38;;;;;;;10.73;2.30;;;20.70;92.90;;;22.08;52.01;101513.28;5138957;28;20055;-73
2022/06/13 07:58:17;;;;;;;7.53;1.85;;;21.00;92.30;;;22.44;50.99;101516.81;5145353;28;20043;-71
2022/06/13 08:00:51;;;;;;;6.32;2.00;;;21.40;91.40;;;22.73;nan;101511.38;5138134;28;20054;-73
2022/06/13 08:03:27;;;;;;;5.97;2.40;;;21.60;90.80;;;22.89;49.55;101523.78;5146557;28;20400;-74
2022/06/13 08:06:00;;;;;;;8.93;2.40;;;21.80;90.00;;;23.23;48.71;101523.59;5146871;28;20050;-72
2022/06/13 08:08:35;;;;;;;6.05;2.00;;;22.00;88.80;;;23.26;47.87;101523.56;5145813;28;20134;-73
2022/06/13 08:11:09;;;;;;;9.43;2.13;;;22.10;87.00;;;23.08;48.78;101529.84;5137866;28;20047;-73
2022/06/13 08:13:41;;;;;;;5.85;1.70;;;22.10;87.30;;;22.92;49.54;101534.38;5139551;28;20077;-73
2022/06/13 08:16:14;;;;;;;6.43;2.17;;;22.00;87.90;;;22.65;50.03;101529.13;5126540;29;20488;-72
2022/06/13 08:18:46;;;;;;;4.32;1.90;;;21.80;87.50;;;22.29;50.43;101536.28;5133185;28;20054;-71
2022/06/13 08:21:19;;;;;;;5.75;1.75;;;21.60;87.40;;;22.40;51.12;101539.81;5141265;28;20046;-72
2022/06/13 08:23:53;;;;;;;8.30;2.30;;;21.60;88.50;;;22.73;50.25;101548.59;5138129;28;20054;-72
2022/06/13 08:26:27;;;;;;;7.15;2.50;;;21.60;88.50;;;22.89;49.34;101541.50;5146322;28;20053;-73
2022/06/13 08:28:59;;;;;;;;;;;21.70;87.70;;;22.79;49.70;101548.56;5145434;28;20105;-73
2022/06/13 08:31:32;;;;;;;6.85;2.47;;;21.60;87.60;;;23.64;48.63;101538.44;5140808;28;19926;-73
2022/06/13 08:34:05;;;;;;;9.85;3.00;;;21.90;88.00;;;25.21;45.70;101538.59;5106531;28;20055;-73
2022/06/13 08:36:37;;;;;;;5.30;2.30;;;22.50;87.40;;;26.47;42.45;101541.00;5100077;29;20066;-69
2022/06/13 08:39:10;;;;;;;7.65;3.00;;;23.30;84.40;;;27.05;40.41;101540.72;5105573;29;20202;-67
2022/06/13 08:41:53;;;;;;;6.70;2.90;;;24.00;80.40;;;27.97;39.22;101543.94;5106232;29;20059;-70
2022/06/13 08:44:43;;;;;;;10.73;3.22;;;24.60;78.70;;;29.26;37.00;101543.91;5106190;29;20058;-68
2022/06/13 08:47:27;;;;;;;8.27;2.70;;;25.60;75.00;;;30.69;34.35;101542.72;5106093;29;20134;-70
2022/06/13 08:50:14;;;;;;;7.78;2.95;;;26.70;71.70;;;31.76;32.99;101552.88;5104091;29;20098;-69
2022/06/13 08:52:55;;;;;;;8.90;3.03;;;27.80;69.00;;;31.55;33.02;101554.59;5098648;29;20063;-70
2022/06/13 08:55:35;;;;;;;6.63;2.88;;;28.00;66.40;;;32.13;32.01;101541.41;5096014;29;20498;-70
2022/06/13 08:58:14;;;;;;;;;;;28.50;64.60;;;32.45;31.38;101560.72;5103410;29;20053;-69
2022/06/13 09:00:53;;;;;;;6.95;2.80;;;28.90;62.50;;;32.56;30.62;101555.75;5104943;29;20369;-69
2022/06/13 09:03:32;;;;;;;8.63;3.00;;;29.10;61.00;;;32.10;31.10;101555.03;5094089;29;20406;-69
2022/06/13 09:06:14;;;;;;;10.18;3.13;;;29.00;60.50;;;32.05;30.94;101570.53;5105534;29;20408;-69
2022/06/13 09:08:52;;;;;;;5.93;3.10;;;28.90;59.70;;;32.31;30.49;101563.13;5105424;29;20050;-69
2022/06/13 09:11:42;;;;;;;7.03;3.20;;;28.90;59.60;;;32.80;30.21;101553.75;5104894;29;20065;-69
2022/06/13 09:14:22;;;;;;;7.60;3.20;;;29.30;59.70;;;32.82;29.22;101576.16;5099109;29;20497;-69
2022/06/13 09:17:04;;;;;;;6.45;3.05;;;29.40;57.50;;;32.65;29.38;101574.19;5085440;29;20074;-69
2022/06/13 09:19:45;;;;;;;9.93;3.45;;;29.40;57.40;;;31.22;30.92;101572.09;5084607;29;20052;-69
2022/06/13 09:22:23;;;;;;;8.85;3.33;;;28.80;57.80;;;30.02;33.31;101574.63;5085593;29;20147;-68
2022/06/13 09:25:04;;;;;;;7.38;3.10;;;28.00;59.20;;;29.99;34.02;101583.66;5085557;29;20056;-70
2022/06/13 09:27:44;;;;;;;9.27;3.25;;;27.70;60.60;;;30.26;34.11;101581.91;5089003;29;20052;-69
2022/06/13 09:30:21;;;;;;;8.18;3.28;;;27.80;61.40;;;29.95;34.50;101568.59;5100698;29;20056;-69
2022/06/13 09:32:56;;;;;;;7.97;3.30;;;27.80;61.30;;;28.82;35.64;101572.03;5093320;29;20058;-68
2022/06/13 09:35:34;;;;;;;8.20;3.15;;;27.20;61.20;;;28.02;36.58;101565.25;5046407;29;20095;-68
2022/06/13 09:38:15;;;;;;;8.80;3.17;;;26.70;61.70;;;27.41;37.33;101569.41;5094650;29;20056;-68
2022/06/13 09:41:00;;;;;;;7.47;2.85;;;26.30;62.10;;;26.77;37.83;101576.97;5089703;29;20056;-68
2022/06/13 09:43:44;;;;;;;6.53;3.00;;;25.80;62.20;;;26.08;39.10;101570.22;5085329;29;20052;-67
2022/06/13 09:46:25;;;;;;;6.45;2.70;;;25.30;64.00;;;25.54;40.16;101578.13;5085651;29;20111;-67
2022/06/13 09:49:24;;;;;;;5.97;2.75;;;24.80;64.10;;;25.00;40.84;101577.97;5085324;29;20476;-68
2022/06/13 09:52:04;;;;;;;5.43;2.40;;;24.30;64.90;;;24.47;41.96;101573.25;5085257;29;20052;-69
2022/06/13 09:54:48;;;;;;;6.47;2.75;;;23.90;65.70;;;24.03;42.78;101572.72;5085250;29;20071;-68
2022/06/13 09:57:34;;;;;;;6.22;3.00;;;23.50;67.00;;;23.62;43.83;101581.03;5102677;29;20079;-67
2022/06/13 10:00:15;;;;;;;10.57;4.15;;;23.10;67.90;;;23.43;44.60;101574.91;5102109;29;20051;-66
2022/06/13 10:03:01;;;;;;;5.78;3.40;;;22.90;68.80;;;23.58;45.48;101578.34;5252864;23;20043;-63
2022/06/13 10:05:39;;;;;;;6.40;3.53;;;22.90;70.10;;;23.63;45.60;101576.59;5121319;29;20043;-64
2022/06/13 10:08:35;;;;;;;7.88;2.95;;;22.90;70.70;;;23.53;45.42;101583.69;5123129;29;20051;-64
2022/06/13 10:11:18;;;;;;;8.50;3.00;;;22.80;70.50;;;23.38;45.54;101583.78;5114474;28;20440;-64
2022/06/13 10:14:20;;;;;;;8.50;3.22;;;22.70;70.50;;;23.22;44.49;101585.66;5106390;29;20054;-63
2022/06/13 10:17:10;;;;;;;12.60;3.40;;;22.60;69.50;;;22.91;44.67;101582.25;5108919;29;20663;-64
2022/06/13 10:19:55;;;;;;;7.65;2.50;;;22.40;69.30;;;22.69;45.15;101581.38;5108445;29;20055;-65
2022/06/13 10:22:38;;;;;;;8.32;2.47;;;22.20;69.80;;;22.51;45.34;101594.72;5128122;29;20057;-64
2022/06/13 10:25:28;;;;;;;7.47;2.53;;;22.00;70.00;;;22.36;45.91;101585.84;5122051;29;20054;-65
2022/06/13 10:28:14;;;;;;;6.00;2.20;;;21.90;70.50;;;22.27;46.25;101600.94;5117186;29;20077;-65
2022/06/13 10:31:00;;;;;;;7.43;2.70;;;21.80;70.90;;;22.22;46.10;101598.28;5127863;29;20061;-64
2022/06/13 10:33:49;;;;;;;6.13;2.50;;;21.80;70.80;;;22.13;46.18;101591.19;5128320;29;20051;-65
2022/06/13 10:36:31;;;;;;;6.72;2.40;;;21.70;70.90;;;22.01;46.06;101593.81;5128123;29;20110;-64
2022/06/13 10:39:07;;;;;;;6.88;2.45;;;21.60;70.70;;;21.89;46.49;101605.31;5120014;29;20069;-65
2022/06/13 10:41:43;;;;;;;5.35;2.20;;;21.60;71.30;;;21.89;46.99;101597.34;5114712;29;20139;-67
2022/06/13 10:44:18;;;;;;;8.18;2.63;;;21.50;71.80;;;21.96;47.08;101598.22;5110271;29;20513;-65
2022/06/13 10:46:53;;;;;;;6.65;2.55;;;21.50;72.00;;;22.12;47.11;101591.22;5108129;29;20055;-66
2022/06/13 10:49:32;;;;;;;4.18;2.42;;;21.70;72.30;;;22.43;47.21;101592.97;5120006;29;20062;-67
2022/06/13 10:52:11;;;;;;;7.55;2.72;;;21.80;72.80;;;22.81;46.70;101591.09;5123407;29;20078;-65
2022/06/13 10:54:48;;;;;;;9.55;3.92;;;22.10;72.60;;;23.08;46.14;101583.03;5127236;29;20051;-65
2022/06/13 10:57:31;;;;;;;7.25;3.05;;;22.30;72.10;;;23.22;45.01;101585.66;5123547;29;20051;-65
2022/06/13 11:00:15;;;;;;;7.72;2.75;;;22.50;71.60;;;23.09;44.87;101589.28;5121032;28;20055;-64
2022/06/13 11:02:49;;;;;;;15.63;4.72;;;22.50;70.20;;;23.00;45.62;101585.72;5112075;29;20052;-64
2022/06/13 11:05:25;;;;;;;18.30;5.82;;;22.40;70.80;;;22.94;46.31;101585.75;5127669;29;20043;-65
2022/06/13 11:08:00;;;;;;;12.43;4.10;;;22.40;71.60;;;22.81;45.37;101589.31;5127617;29;20503;-64
2022/06/13 11:10:38;;;;;;;8.93;3.00;;;22.40;70.80;;;22.77;44.92;101586.69;5127603;29;20058;-64
2022/06/13 11:13:18;;;;;;;12.65;3.55;;;22.30;70.10;;;22.81;44.91;101593.75;5127581;29;20055;-65